Time;durP1;ratioP1;P1;durP2;ratioP2;P2;SDS_P1;SDS_P2;PMS_P1;PMS_P2;Temp;Humidity;BMP_temperature;BMP_pressure;BME280_temperature;BME280_humidity;BME280_pressure;Samples;Min_cycle;Max_cycle;Signal;HPM_P1;HPM_P2
2022/01/26 00:06:39;;;;;;;102.53;32.80;;;;;;;2.78;100.00;103223.88;4899603;29;20044;-66
2022/01/26 00:09:06;;;;;;;106.03;35.75;;;;;;;2.77;100.00;103221.25;4900604;29;20039;-67
2022/01/26 00:11:32;;;;;;;112.53;35.97;;;;;;;2.79;100.00;103222.16;4894286;29;20063;-66
2022/01/26 00:14:00;;;;;;;110.35;36.28;;;;;;;2.79;100.00;103228.25;4888494;29;20039;-66
2022/01/26 00:16:28;;;;;;;108.50;36.17;;;;;;;2.79;100.00;103227.38;4890920;29;20055;-66
2022/01/26 00:18:58;;;;;;;99.10;33.75;;;;;;;2.77;100.00;103224.72;4889544;29;20106;-66
2022/01/26 00:21:29;;;;;;;99.50;32.88;;;;;;;2.76;100.00;103216.81;4892689;29;21013;-66
2022/01/26 00:26:37;;;;;;;103.53;36.15;;;;;;;2.75;100.00;103215.06;4894242;29;20661;-66
2022/01/26 00:38:34;;;;;;;102.65;35.53;;;;;;;2.74;100.00;103198.50;4892652;29;20151;-66
2022/01/26 00:40:05;;;;;;;98.93;34.97;;;;;;;2.71;100.00;103212.38;4893169;29;20036;-66
2022/01/26 00:42:36;;;;;;;107.95;35.80;;;;;;;2.71;100.00;103211.47;4891919;29;20042;-66
2022/01/26 00:45:03;;;;;;;110.18;36.95;;;;;;;2.72;100.00;103218.47;4892769;29;21703;-67
2022/01/26 00:47:29;;;;;;;102.65;35.20;;;;;;;2.71;100.00;103215.00;4883768;29;20032;-66
2022/01/26 00:50:02;;;;;;;103.13;36.25;;;;;;;2.70;100.00;103210.63;4874494;29;20653;-66
2022/01/26 00:52:40;;;;;;;102.57;37.00;;;;;;;2.71;100.00;103208.88;4891865;29;20051;-66
2022/01/26 00:55:08;;;;;;;101.88;37.92;;;;;;;2.70;100.00;103194.91;4876586;29;20538;-66
2022/01/26 00:57:34;;;;;;;107.50;40.13;;;;;;;2.70;100.00;103194.03;4894265;29;20150;-67
2022/01/26 01:00:00;;;;;;;94.07;38.05;;;;;;;2.70;100.00;103200.16;4893393;29;20036;-66
2022/01/26 01:02:26;;;;;;;100.10;38.53;;;;;;;2.69;100.00;103190.53;4893450;29;20330;-66
2022/01/26 01:04:52;;;;;;;94.57;37.15;;;;;;;2.71;100.00;103195.78;4870664;29;20099;-66
2022/01/26 01:07:21;;;;;;;89.53;35.40;;;;;;;2.70;100.00;103200.16;4890477;29;20051;-66
2022/01/26 01:09:47;;;;;;;99.07;40.03;;;;;;;2.71;100.00;103188.84;4889590;29;20469;-66
2022/01/26 01:12:13;;;;;;;97.38;37.53;;;;;;;2.71;100.00;103177.47;4891853;29;20032;-66
2022/01/26 01:14:41;;;;;;;101.32;40.42;;;;;;;2.69;100.00;103182.69;4892301;29;20079;-67
2022/01/26 01:17:09;;;;;;;95.93;39.28;;;;;;;2.69;100.00;103176.56;4876359;29;20040;-67
2022/01/26 01:20:01;;;;;;;97.38;40.55;;;;;;;2.68;100.00;103167.81;4880747;29;20067;-66
2022/01/26 01:29:58;;;;;;;91.63;38.63;;;;;;;2.64;100.00;103149.41;4890589;29;20036;-66
2022/01/26 01:32:34;;;;;;;89.40;37.38;;;;;;;2.62;100.00;103145.88;4891659;29;20510;-66
2022/01/26 01:35:00;;;;;;;88.45;35.85;;;;;;;2.61;100.00;103157.19;4873001;29;20058;-66
2022/01/26 01:37:26;;;;;;;82.90;34.50;;;;;;;2.61;100.00;103154.56;4891494;29;20040;-66
2022/01/26 01:39:51;;;;;;;81.68;34.70;;;;;;;2.61;100.00;103154.56;4891765;29;20382;-67
2022/01/26 01:42:17;;;;;;;78.30;33.80;;;;;;;2.60;100.00;103152.81;4875691;29;20649;-66
2022/01/26 01:44:42;;;;;;;81.15;34.78;;;;;;;2.59;100.00;103149.28;4890453;29;20040;-66
2022/01/26 01:47:08;;;;;;;80.40;33.88;;;;;;;2.61;100.00;103144.97;4880631;29;20357;-66
2022/01/26 01:49:35;;;;;;;73.50;33.95;;;;;;;2.63;100.00;103139.78;4871326;29;20484;-66
2022/01/26 01:52:04;;;;;;;82.97;34.60;;;;;;;2.63;100.00;103135.44;4891594;29;20040;-66
2022/01/26 01:54:29;;;;;;;90.30;38.05;;;;;;;2.64;100.00;103129.38;4891339;29;20067;-67
2022/01/26 01:56:58;;;;;;;80.45;35.33;;;;;;;2.65;100.00;103120.66;4890936;29;20179;-66
2022/01/26 01:59:28;;;;;;;84.72;35.65;;;;;;;2.64;100.00;103120.63;4893050;29;20040;-67
2022/01/26 02:01:54;;;;;;;83.43;36.50;;;;;;;2.66;100.00;103129.41;4874234;29;20054;-66
2022/01/26 02:04:20;;;;;;;84.13;34.92;;;;;;;2.65;100.00;103128.50;4891816;29;20470;-66
2022/01/26 02:06:46;;;;;;;81.85;37.00;;;;;;;2.65;100.00;103125.00;4891597;29;20036;-66
2022/01/26 02:09:12;;;;;;;81.32;34.88;;;;;;;2.66;100.00;103143.34;4890915;29;20115;-66
2022/01/26 02:11:45;;;;;;;83.28;35.95;;;;;;;2.66;100.00;103139.88;4890694;29;20362;-67
2022/01/26 02:14:18;;;;;;;85.95;36.95;;;;;;;2.65;100.00;103146.81;4892272;29;20037;-66
2022/01/26 03:02:39;;;;;;;82.22;35.92;;;;;;;2.61;99.96;103091.78;4890674;29;20024;-66
2022/01/26 03:05:07;;;;;;;85.15;34.88;;;;;;;2.61;100.00;103091.78;4890496;29;20423;-66
2022/01/26 03:10:33;;;;;;;79.97;34.03;;;;;;;2.60;99.43;103085.66;4889099;29;20049;-65
2022/01/26 03:13:10;;;;;;;92.35;35.42;;;;;;;2.57;99.81;103093.44;4889777;29;20048;-66
2022/01/26 03:18:51;;;;;;;87.68;35.55;;;;;;;2.56;99.74;103096.91;4885565;29;20044;-66
2022/01/26 03:21:20;;;;;;;81.22;33.10;;;;;;;2.54;99.73;103103.81;4890200;29;20641;-66
2022/01/26 03:29:27;;;;;;;78.78;34.40;;;;;;;2.53;99.62;103104.66;4891101;29;20454;-66
2022/01/26 03:34:54;;;;;;;81.50;34.00;;;;;;;2.52;99.71;103132.56;4871925;29;20062;-66
2022/01/26 03:37:23;;;;;;;75.70;32.28;;;;;;;2.51;99.78;103136.00;4894545;29;21087;-67
2022/01/26 03:39:51;;;;;;;87.93;35.75;;;;;;;2.51;99.59;103133.38;4895069;29;20028;-66
2022/01/26 03:42:17;;;;;;;83.78;34.55;;;;;;;2.52;99.75;103144.75;4893978;29;20487;-66
2022/01/26 03:44:42;;;;;;;87.57;33.38;;;;;;;2.51;99.70;103133.38;4877830;29;20062;-67
2022/01/26 03:47:09;;;;;;;88.65;35.28;;;;;;;2.52;99.59;103135.19;4891153;29;20288;-66
2022/01/26 03:49:35;;;;;;;77.93;33.63;;;;;;;2.53;99.85;103136.94;4894108;29;20035;-66
2022/01/26 03:52:02;;;;;;;89.18;34.92;;;;;;;2.54;99.73;103116.88;4894716;29;20084;-66
2022/01/26 03:54:28;;;;;;;84.57;33.95;;;;;;;2.54;99.81;103111.66;4891758;29;20040;-66
2022/01/26 03:56:54;;;;;;;81.95;33.97;;;;;;;2.53;99.68;103100.34;4893178;29;20095;-66
2022/01/26 03:59:19;;;;;;;85.05;34.95;;;;;;;2.54;99.58;103093.34;4876963;29;20093;-66
2022/01/26 04:01:45;;;;;;;84.55;32.78;;;;;;;2.53;99.66;103079.41;4894293;29;20517;-66
2022/01/26 04:04:10;;;;;;;81.57;33.20;;;;;;;2.52;99.48;103076.75;4893759;29;20044;-66
2022/01/26 04:06:36;;;;;;;85.38;32.95;;;;;;;2.53;99.61;103073.28;4893993;29;20575;-66
2022/01/26 04:09:04;;;;;;;78.68;30.40;;;;;;;2.52;99.66;103066.28;4879108;29;20028;-67
2022/01/26 04:11:35;;;;;;;82.43;31.70;;;;;;;2.52;99.75;103059.34;4876708;29;20112;-66
2022/01/26 04:14:10;;;;;;;79.53;31.02;;;;;;;2.52;99.86;103061.06;4890770;29;20748;-66
2022/01/26 04:16:37;;;;;;;85.95;30.90;;;;;;;2.52;99.75;103072.41;4893323;29;20060;-66
2022/01/26 04:19:03;;;;;;;79.68;29.60;;;;;;;2.52;99.72;103075.03;4893431;29;20475;-66
2022/01/26 04:27:01;;;;;;;77.53;30.20;;;;;;;2.51;99.67;103048.84;4856341;29;20143;-66
2022/01/26 04:29:30;;;;;;;81.05;28.98;;;;;;;2.50;99.71;103040.09;4861652;29;20039;-66
2022/01/26 04:31:57;;;;;;;83.03;29.00;;;;;;;2.51;99.89;103034.00;4894386;29;20032;-64
2022/01/26 04:34:23;;;;;;;79.55;28.85;;;;;;;2.51;99.85;103030.53;4893389;29;20036;-65
2022/01/26 04:37:06;;;;;;;85.15;29.65;;;;;;;2.50;99.96;103034.88;4878710;29;20036;-65
2022/01/26 04:39:38;;;;;;;79.55;26.75;;;;;;;2.50;99.87;103020.91;4875146;29;20047;-65
2022/01/26 04:42:12;;;;;;;79.55;28.52;;;;;;;2.49;99.80;103027.88;4894679;29;20107;-65
2022/01/26 04:44:47;;;;;;;69.55;25.65;;;;;;;2.48;99.75;103031.34;4892552;29;20044;-65
2022/01/26 04:47:13;;;;;;;76.78;28.52;;;;;;;2.48;99.95;103033.06;4890627;29;20043;-66
2022/01/26 04:49:38;;;;;;;80.93;29.10;;;;;;;2.46;99.85;103035.66;4892953;29;20036;-66
2022/01/26 04:52:04;;;;;;;83.63;27.52;;;;;;;2.45;99.86;103044.31;4893044;29;20032;-65
2022/01/26 04:54:30;;;;;;;83.70;28.63;;;;;;;2.44;99.66;103040.84;4892311;29;20484;-65
2022/01/26 04:56:56;;;;;;;79.35;27.50;;;;;;;2.42;99.73;103046.88;4893699;29;20058;-66
2022/01/26 04:59:21;;;;;;;87.25;29.10;;;;;;;2.42;99.85;103049.50;4893559;29;20037;-66
2022/01/26 05:01:47;;;;;;;83.90;29.17;;;;;;;2.42;99.85;103054.72;4893476;29;20040;-66
2022/01/26 05:04:12;;;;;;;91.28;29.27;;;;;;;2.43;99.91;103056.47;4874786;29;20036;-66
2022/01/26 05:06:37;;;;;;;80.13;28.75;;;;;;;2.43;99.95;103049.53;4875413;29;20143;-66
2022/01/26 05:09:04;;;;;;;82.10;27.77;;;;;;;2.44;99.98;103042.56;4891837;29;20126;-65
2022/01/26 05:11:39;;;;;;;82.28;28.88;;;;;;;2.44;99.76;103045.19;4873174;29;20060;-66
2022/01/26 05:14:04;;;;;;;83.70;29.30;;;;;;;2.43;99.86;103031.22;4890597;29;20040;-66
2022/01/26 05:16:30;;;;;;;84.80;29.55;;;;;;;2.44;100.00;103021.63;4892174;29;20444;-66
2022/01/26 05:18:56;;;;;;;80.78;29.58;;;;;;;2.42;100.00;103013.78;4891398;29;20486;-66
2022/01/26 05:21:23;;;;;;;83.75;30.88;;;;;;;2.42;100.00;103016.41;4890907;29;21312;-66
2022/01/26 05:23:49;;;;;;;81.18;30.10;;;;;;;2.42;100.00;103020.72;4891528;29;20036;-66
2022/01/26 05:26:15;;;;;;;87.75;31.35;;;;;;;2.42;99.76;103024.25;4891966;29;20082;-66
2022/01/26 05:28:40;;;;;;;80.05;30.77;;;;;;;2.42;99.88;103023.34;4893148;29;20175;-66
2022/01/26 05:31:06;;;;;;;87.18;31.23;;;;;;;2.41;99.91;103032.03;4892312;29;20036;-66
2022/01/26 05:33:31;;;;;;;83.30;30.73;;;;;;;2.41;99.83;103037.28;4881926;29;20509;-66
2022/01/26 05:35:57;;;;;;;83.88;30.67;;;;;;;2.41;99.88;103037.28;4873290;29;20059;-66
2022/01/26 05:38:22;;;;;;;83.78;29.80;;;;;;;2.41;100.00;103027.69;4888709;29;20035;-66
2022/01/26 05:40:49;;;;;;;84.05;31.00;;;;;;;2.43;100.00;103020.78;4893021;29;20432;-66
2022/01/26 05:43:15;;;;;;;83.53;31.75;;;;;;;2.42;99.98;103020.72;4892016;29;20056;-64
2022/01/26 05:45:43;;;;;;;83.55;31.67;;;;;;;2.42;100.00;103024.25;4893382;29;20044;-66
2022/01/26 05:48:12;;;;;;;93.50;33.35;;;;;;;2.41;99.91;103032.03;4890508;29;20136;-66
2022/01/26 05:50:38;;;;;;;81.47;29.98;;;;;;;2.40;99.70;103022.44;4890765;29;20036;-66
2022/01/26 05:53:05;;;;;;;91.57;32.70;;;;;;;2.41;99.90;103024.19;4891498;29;20512;-66
2022/01/26 05:55:31;;;;;;;83.53;32.78;;;;;;;2.41;99.95;103025.06;4889710;29;20100;-65
2022/01/26 05:57:56;;;;;;;91.15;34.70;;;;;;;2.41;100.00;103019.84;4892005;29;20540;-65
2022/01/26 06:00:22;;;;;;;87.55;34.47;;;;;;;2.43;99.92;103020.78;4891036;29;20035;-66
2022/01/26 06:02:47;;;;;;;89.85;33.80;;;;;;;2.43;100.00;103020.78;4892775;29;20130;-66
2022/01/26 06:05:13;;;;;;;90.10;34.67;;;;;;;2.44;100.00;103016.41;4890839;29;20043;-66
2022/01/26 06:07:38;;;;;;;78.38;30.88;;;;;;;2.45;100.00;103020.78;4891867;29;20102;-66
2022/01/26 06:10:05;;;;;;;87.78;33.90;;;;;;;2.45;100.00;103015.56;4890225;29;20036;-65
2022/01/26 06:12:33;;;;;;;87.65;34.88;;;;;;;2.45;100.00;103005.09;4878570;29;20415;-66
2022/01/26 06:15:05;;;;;;;88.53;34.42;;;;;;;2.45;100.00;103010.31;4891962;29;20130;-66
2022/01/26 06:17:30;;;;;;;97.20;36.08;;;;;;;2.45;100.00;103033.88;4875177;29;20488;-65
2022/01/26 06:19:56;;;;;;;86.95;34.83;;;;;;;2.44;99.91;103045.19;4892167;29;20036;-66
2022/01/26 06:22:21;;;;;;;90.07;34.33;;;;;;;2.43;99.94;103053.88;4891589;29;20441;-65
2022/01/26 06:24:47;;;;;;;88.15;33.42;;;;;;;2.44;100.00;103045.19;4891766;29;20088;-66
2022/01/26 06:27:12;;;;;;;89.65;34.47;;;;;;;2.47;100.00;103033.91;4889817;29;20127;-66
2022/01/26 06:29:38;;;;;;;89.70;34.78;;;;;;;2.48;100.00;103023.50;4888962;29;20570;-66
2022/01/26 06:32:05;;;;;;;91.50;35.22;;;;;;;2.50;100.00;103021.78;4868853;29;20035;-66
2022/01/26 06:34:31;;;;;;;95.75;37.58;;;;;;;2.52;100.00;103024.44;4891380;29;20051;-66
2022/01/26 06:36:57;;;;;;;98.43;37.28;;;;;;;2.51;100.00;103020.94;4890129;29;20032;-66
2022/01/26 06:39:22;;;;;;;98.93;38.85;;;;;;;2.52;100.00;103034.91;4892835;29;20365;-66
2022/01/26 06:41:54;;;;;;;101.22;39.13;;;;;;;2.51;100.00;103036.63;4891635;29;20044;-65
2022/01/26 06:44:26;;;;;;;92.93;35.15;;;;;;;2.53;100.00;103036.66;4892480;29;20080;-66
2022/01/26 06:51:53;;;;;;;98.22;37.00;;;;;;;2.57;100.00;103028.94;4875616;29;20032;-66
2022/01/26 06:54:18;;;;;;;91.63;36.47;;;;;;;2.60;100.00;103038.56;4890595;29;20036;-66
2022/01/26 06:56:45;;;;;;;100.32;39.10;;;;;;;2.61;100.00;103042.09;4889739;29;20032;-66
2022/01/26 06:59:11;;;;;;;103.88;38.85;;;;;;;2.64;100.00;103039.53;4874258;29;20036;-66
2022/01/26 07:01:38;;;;;;;97.40;37.70;;;;;;;2.64;100.00;103018.59;4891665;29;20487;-66
2022/01/26 07:04:04;;;;;;;96.03;38.13;;;;;;;2.63;100.00;103017.75;4888394;29;20377;-67
2022/01/26 07:06:29;;;;;;;105.30;38.92;;;;;;;2.65;100.00;103017.75;4891150;29;20139;-66
2022/01/26 07:08:55;;;;;;;98.85;36.95;;;;;;;2.65;100.00;103017.75;4893799;29;20040;-66
2022/01/26 07:11:20;;;;;;;97.97;37.28;;;;;;;2.65;100.00;103018.66;4897737;29;20040;-66
2022/01/26 07:13:46;;;;;;;101.72;37.40;;;;;;;2.67;100.00;103026.53;4896857;29;20103;-66
2022/01/26 07:21:41;;;;;;;93.65;36.53;;;;;;;2.68;100.00;103000.41;4891122;29;20036;-66
2022/01/26 07:24:06;;;;;;;95.43;35.60;;;;;;;2.70;100.00;103008.28;4896662;29;20064;-66
2022/01/26 07:26:32;;;;;;;90.05;34.55;;;;;;;2.70;100.00;103000.44;4893652;29;20059;-66
2022/01/26 07:29:00;;;;;;;94.07;36.30;;;;;;;2.70;100.00;102995.22;4877207;29;20078;-66
2022/01/26 07:31:25;;;;;;;82.55;34.58;;;;;;;2.67;100.00;103005.63;4879007;29;20563;-66
2022/01/26 07:33:56;;;;;;;83.70;34.78;;;;;;;2.67;100.00;103010.84;4897125;29;20054;-66
2022/01/26 07:36:22;;;;;;;86.88;34.53;;;;;;;2.66;100.00;103016.94;4879827;29;20511;-66
2022/01/26 07:38:52;;;;;;;80.43;34.60;;;;;;;2.65;100.00;103016.03;4896181;29;20113;-66
2022/01/26 07:41:18;;;;;;;80.93;33.97;;;;;;;2.65;100.00;103028.22;4894595;29;20118;-66
2022/01/26 07:43:44;;;;;;;79.35;33.97;;;;;;;2.64;100.00;103027.34;4897599;29;20050;-66
2022/01/26 07:46:10;;;;;;;82.65;32.75;;;;;;;2.65;100.00;103028.22;4896294;29;20075;-66
2022/01/26 07:48:36;;;;;;;78.78;33.28;;;;;;;2.65;100.00;103029.13;4895907;29;20048;-66
2022/01/26 07:51:01;;;;;;;87.43;35.75;;;;;;;2.66;100.00;103022.16;4897098;29;20426;-66
2022/01/26 07:53:27;;;;;;;75.68;32.22;;;;;;;2.66;100.00;103025.66;4894116;29;20187;-66
2022/01/26 07:55:52;;;;;;;80.80;33.38;;;;;;;2.66;100.00;103023.03;4896434;29;20787;-68
2022/01/26 07:58:19;;;;;;;82.88;35.47;;;;;;;2.70;100.00;103031.81;4896660;29;20024;-67
2022/01/26 08:00:45;;;;;;;88.45;35.15;;;;;;;2.71;100.00;103025.75;4897190;29;20032;-68
2022/01/26 08:03:11;;;;;;;79.97;32.50;;;;;;;2.70;100.00;103018.75;4896643;29;20365;-66
2022/01/26 08:05:37;;;;;;;85.05;34.70;;;;;;;2.74;100.00;103030.16;4897925;29;20024;-66
2022/01/26 08:08:02;;;;;;;85.05;34.65;;;;;;;2.75;100.00;103031.94;4877461;29;20179;-66
2022/01/26 08:10:28;;;;;;;90.97;35.85;;;;;;;2.76;100.00;103023.22;4896762;29;20032;-66
2022/01/26 08:12:53;;;;;;;83.68;33.60;;;;;;;2.75;100.00;103031.94;4894236;29;20216;-66
2022/01/26 08:15:19;;;;;;;81.20;34.28;;;;;;;2.79;100.00;103028.53;4895826;29;20268;-66
2022/01/26 08:17:45;;;;;;;81.55;33.58;;;;;;;2.79;100.00;103036.38;4896306;29;20127;-66
2022/01/26 08:20:10;;;;;;;90.63;36.67;;;;;;;2.79;100.00;103032.03;4893029;29;20117;-66
2022/01/26 08:22:37;;;;;;;79.93;33.72;;;;;;;2.80;99.95;103031.19;4891499;29;20048;-66
2022/01/26 08:25:03;;;;;;;82.78;34.15;;;;;;;2.81;100.00;103027.72;4873493;29;20032;-66
2022/01/26 08:27:37;;;;;;;88.78;34.85;;;;;;;2.82;99.86;103020.75;4890568;29;20094;-65
2022/01/26 08:30:08;;;;;;;84.22;34.95;;;;;;;2.83;100.00;103026.03;4877915;29;20091;-65
2022/01/26 08:32:34;;;;;;;86.35;35.97;;;;;;;2.82;100.00;103024.25;4887594;29;20888;-66
2022/01/26 08:34:59;;;;;;;90.97;35.60;;;;;;;2.84;100.00;103026.91;4888448;29;20044;-66
2022/01/26 08:37:25;;;;;;;89.95;36.47;;;;;;;2.84;99.90;103029.53;4890716;29;20498;-66
2022/01/26 08:39:51;;;;;;;95.35;36.90;;;;;;;2.85;100.00;103033.91;4892995;29;20867;-66
2022/01/26 08:42:16;;;;;;;91.75;36.05;;;;;;;2.86;100.00;103030.44;4874353;29;20032;-66
2022/01/26 08:44:42;;;;;;;89.15;36.40;;;;;;;2.87;99.68;103020.88;4892323;29;21894;-67
2022/01/26 08:47:07;;;;;;;92.47;35.70;;;;;;;2.88;99.80;103023.50;4885848;29;20048;-66
2022/01/26 08:49:33;;;;;;;95.75;36.97;;;;;;;2.89;99.85;103024.41;4887514;29;20294;-66
2022/01/26 08:51:59;;;;;;;84.70;33.90;;;;;;;2.91;99.82;103033.16;4891958;29;20032;-66
2022/01/26 08:54:25;;;;;;;95.97;36.72;;;;;;;2.91;100.00;103039.28;4892083;29;20036;-66
2022/01/26 08:56:51;;;;;;;94.97;38.25;;;;;;;2.92;100.00;103037.53;4892197;29;20100;-66
2022/01/26 08:59:17;;;;;;;98.05;36.55;;;;;;;2.93;100.00;103031.44;4892096;29;20036;-66
2022/01/26 09:01:43;;;;;;;92.32;35.80;;;;;;;2.94;100.00;103022.78;4878743;29;20044;-65
2022/01/26 09:04:09;;;;;;;98.82;38.17;;;;;;;2.96;99.94;103021.06;4747894;29;74805;-66
2022/01/26 09:06:39;;;;;;;89.20;36.13;;;;;;;2.95;99.74;103028.00;4847625;29;20041;-65
2022/01/26 09:09:07;;;;;;;91.78;35.53;;;;;;;2.97;100.00;103022.81;4852769;29;20029;-65
2022/01/26 09:11:35;;;;;;;96.00;36.88;;;;;;;2.98;100.00;103016.72;4853250;29;20033;-65
2022/01/26 09:14:07;;;;;;;99.13;36.92;;;;;;;3.01;100.00;103024.66;4852513;29;20033;-65
2022/01/26 09:16:35;;;;;;;97.35;35.38;;;;;;;3.02;100.00;103034.28;4850261;29;20038;-65
2022/01/26 09:19:13;;;;;;;92.25;34.85;;;;;;;3.03;100.00;103025.56;4852134;29;20083;-65
2022/01/26 09:21:39;;;;;;;94.05;35.08;;;;;;;3.04;100.00;103023.84;4839566;29;20643;-66
2022/01/26 09:24:05;;;;;;;97.90;35.50;;;;;;;3.04;100.00;103032.56;4851027;29;20766;-66
2022/01/26 09:26:30;;;;;;;90.32;36.08;;;;;;;3.06;100.00;103043.94;4837632;29;20045;-65
2022/01/26 09:28:56;;;;;;;92.03;35.95;;;;;;;3.07;100.00;103061.44;4853529;29;20039;-66
2022/01/26 09:31:21;;;;;;;100.38;38.05;;;;;;;3.08;100.00;103062.31;4851562;29;20465;-66
2022/01/26 09:33:46;;;;;;;97.53;37.47;;;;;;;3.07;100.00;103064.06;4852949;29;20041;-66
2022/01/26 09:36:12;;;;;;;87.47;34.58;;;;;;;3.07;100.00;103068.41;4852814;29;20025;-66
2022/01/26 09:38:39;;;;;;;90.00;35.30;;;;;;;3.07;100.00;103065.78;4850599;29;20083;-67
2022/01/26 09:41:04;;;;;;;86.78;34.10;;;;;;;3.09;100.00;103053.59;4852220;29;20037;-66
2022/01/26 09:43:31;;;;;;;82.00;32.50;;;;;;;3.09;99.86;103064.97;4851220;29;20488;-63
2022/01/26 09:45:56;;;;;;;79.70;31.80;;;;;;;3.10;99.65;103053.63;4823408;29;20112;-66
2022/01/26 09:48:22;;;;;;;81.78;31.15;;;;;;;3.14;99.78;103062.44;4853204;29;20044;-67
2022/01/26 09:50:54;;;;;;;82.38;32.55;;;;;;;3.16;99.89;103045.03;4851214;29;20041;-67
2022/01/26 09:53:22;;;;;;;81.78;31.75;;;;;;;3.19;100.00;103054.69;4852284;29;20045;-68
2022/01/26 09:55:48;;;;;;;81.93;32.42;;;;;;;3.20;99.86;103056.44;4852543;29;20045;-66
2022/01/26 09:58:15;;;;;;;75.40;29.77;;;;;;;3.21;99.83;103064.34;4852367;29;20287;-66
2022/01/26 10:00:41;;;;;;;79.00;30.27;;;;;;;3.22;100.00;103063.47;4851827;29;20607;-66
2022/01/26 10:03:07;;;;;;;74.13;31.40;;;;;;;3.21;99.95;103063.47;4852712;29;20055;-66
2022/01/26 10:05:44;;;;;;;70.85;31.15;;;;;;;3.25;99.89;103073.13;4851603;29;20044;-66
2022/01/26 10:19:07;;;;;;;70.65;30.05;;;;;;;3.33;100.00;103055.84;4838963;29;20116;-66
2022/01/26 10:21:43;;;;;;;82.57;29.98;;;;;;;3.34;99.82;103052.41;4852187;29;20040;-66
2022/01/26 10:24:10;;;;;;;70.55;28.80;;;;;;;3.35;99.68;103054.16;4851618;29;20721;-66
2022/01/26 10:26:35;;;;;;;77.72;31.98;;;;;;;3.38;99.77;103040.25;4851101;29;20049;-67
2022/01/26 10:29:03;;;;;;;80.50;32.05;;;;;;;3.39;99.82;103048.13;4835302;29;20560;-67
2022/01/26 10:31:37;;;;;;;80.00;31.63;;;;;;;3.42;99.84;103041.19;4851003;29;20033;-67
2022/01/26 10:34:12;;;;;;;78.80;31.58;;;;;;;3.45;99.80;103043.84;4852392;29;20052;-67
2022/01/26 10:36:40;;;;;;;82.80;33.60;;;;;;;3.47;99.74;103040.41;4849506;29;20537;-67
2022/01/26 10:39:09;;;;;;;83.63;33.15;;;;;;;3.49;99.93;103032.59;4851877;29;20156;-66
2022/01/26 10:41:36;;;;;;;79.72;31.83;;;;;;;3.52;99.96;103032.66;4851416;29;20556;-65
2022/01/26 10:44:03;;;;;;;69.57;29.73;;;;;;;3.53;99.95;103023.94;4852354;29;20041;-65
2022/01/26 10:46:34;;;;;;;74.72;30.25;;;;;;;3.53;99.76;103024.81;4852094;29;20188;-65
2022/01/26 10:54:34;;;;;;;74.70;31.55;;;;;;;3.59;99.69;103020.56;4851950;29;20524;-65
2022/01/26 10:57:00;;;;;;;78.07;30.90;;;;;;;3.61;99.64;103016.22;4852011;29;20093;-66
2022/01/26 10:59:26;;;;;;;73.15;30.05;;;;;;;3.62;99.66;103018.88;4850224;29;20053;-65
2022/01/26 11:01:51;;;;;;;65.55;28.77;;;;;;;3.65;99.39;103018.06;4836961;29;20084;-66
2022/01/26 11:04:17;;;;;;;72.60;30.02;;;;;;;3.66;99.65;103014.59;4856120;29;20296;-66
2022/01/26 11:06:50;;;;;;;76.70;31.50;;;;;;;3.69;99.66;103025.09;4850874;29;20058;-66
2022/01/26 11:09:18;;;;;;;70.63;30.48;;;;;;;3.69;99.49;103008.53;4851943;29;20375;-66
2022/01/26 11:11:43;;;;;;;74.88;30.65;;;;;;;3.71;99.37;102998.94;4850010;29;20145;-65
2022/01/26 11:14:22;;;;;;;72.80;29.83;;;;;;;3.72;99.70;102998.09;4851601;29;20133;-65
2022/01/26 11:16:50;;;;;;;68.05;29.58;;;;;;;3.73;99.94;102994.59;4851150;29;20104;-65
2022/01/26 11:19:16;;;;;;;70.28;29.10;;;;;;;3.74;99.20;102983.25;4851595;29;20123;-65
2022/01/26 11:21:43;;;;;;;69.57;28.80;;;;;;;3.77;99.43;102986.81;4850181;29;20037;-66
2022/01/26 11:24:15;;;;;;;68.38;27.27;;;;;;;3.81;99.31;102990.38;4851525;29;20072;-65
2022/01/26 11:26:42;;;;;;;76.18;28.70;;;;;;;3.83;99.52;103001.78;4850549;29;20556;-65
2022/01/26 11:29:14;;;;;;;70.72;29.08;;;;;;;3.85;99.42;102993.94;4852179;29;20037;-65
2022/01/26 11:31:41;;;;;;;72.28;29.27;;;;;;;3.86;99.71;102988.72;4851527;29;20044;-65
2022/01/26 11:34:09;;;;;;;73.60;30.10;;;;;;;3.90;99.48;102993.16;4851777;29;20112;-65
2022/01/26 11:36:34;;;;;;;74.50;30.40;;;;;;;3.92;99.49;103001.94;4850898;29;20049;-65
2022/01/26 11:46:56;;;;;;;72.05;28.52;;;;;;;4.02;99.38;102994.22;4850331;29;21377;-66
2022/01/26 11:49:26;;;;;;;72.50;29.75;;;;;;;4.06;99.48;102983.81;4854370;29;20497;-65
2022/01/26 11:51:57;;;;;;;69.18;27.48;;;;;;;4.08;99.43;102982.09;4842816;29;20037;-65
2022/01/26 11:54:41;;;;;;;68.70;28.98;;;;;;;4.12;99.44;102996.13;4852557;29;20028;-65
2022/01/26 11:57:13;;;;;;;65.13;28.40;;;;;;;4.14;99.47;102986.56;4838111;29;20062;-65
2022/01/26 11:59:50;;;;;;;66.68;28.08;;;;;;;4.18;99.26;102983.13;4854415;29;20036;-65
2022/01/26 12:03:08;;;;;;;66.15;27.13;;;;;;;4.21;99.68;102987.53;4854044;29;20124;-64
2022/01/26 12:05:12;;;;;;;;;;;;;;;4.23;98.88;102967.47;4854496;29;20053;-65
2022/01/26 12:07:54;;;;;;;66.05;25.92;;;;;;;4.26;99.57;102962.28;4854355;29;19963;-64
2022/01/26 12:10:29;;;;;;;71.00;28.20;;;;;;;4.30;99.70;102940.47;4851966;29;20090;-64
2022/01/26 12:13:03;;;;;;;71.00;27.98;;;;;;;4.35;99.57;102938.81;4854916;29;20405;-64
2022/01/26 12:15:33;;;;;;;70.60;28.38;;;;;;;4.42;99.45;102933.66;4853915;29;20064;-64
2022/01/26 12:18:49;;;;;;;74.55;29.98;;;;;;;4.46;99.10;102925.84;4854506;29;20029;-65
2022/01/26 12:35:29;;;;;;;67.55;27.83;;;;;;;4.51;99.25;102930.28;4855234;29;20033;-64
2022/01/26 12:41:16;;;;;;;72.60;28.25;;;;;;;4.54;99.00;102917.19;4845036;29;20501;-64
2022/01/26 12:43:49;;;;;;;64.10;27.88;;;;;;;4.56;98.77;102916.34;4855803;29;20098;-64
2022/01/26 12:46:23;;;;;;;62.38;27.73;;;;;;;4.61;99.31;102911.16;4856090;29;20434;-64
2022/01/26 12:49:00;;;;;;;66.55;26.92;;;;;;;4.65;99.07;102907.72;4854715;29;20481;-64
2022/01/26 12:51:28;;;;;;;66.07;28.10;;;;;;;4.67;98.74;102911.22;4854323;29;20065;-65
2022/01/26 12:53:59;;;;;;;68.15;28.42;;;;;;;4.69;98.98;102920.00;4854689;29;20622;-64
2022/01/26 12:56:27;;;;;;;73.28;27.88;;;;;;;4.70;99.50;102924.41;4853666;29;20051;-64
2022/01/26 12:59:21;;;;;;;64.00;26.40;;;;;;;4.75;98.64;102927.09;4854440;29;20033;-64
2022/01/26 13:01:50;;;;;;;70.10;27.33;;;;;;;4.75;98.72;102916.59;4853026;29;20125;-65
2022/01/26 13:04:18;;;;;;;64.90;25.00;;;;;;;4.76;98.85;102924.44;4840474;29;20044;-64
2022/01/26 13:06:52;;;;;;;64.90;26.85;;;;;;;4.79;99.07;102923.63;4855370;29;20041;-65
2022/01/26 13:09:21;;;;;;;61.70;26.13;;;;;;;4.81;98.73;102921.03;4854344;29;20032;-64
2022/01/26 13:11:49;;;;;;;65.70;25.50;;;;;;;4.84;98.94;102911.44;4854150;29;20524;-65
2022/01/26 13:14:31;;;;;;;64.28;25.17;;;;;;;4.87;98.91;102911.50;4855187;29;20124;-64
2022/01/26 13:17:15;;;;;;;61.10;25.83;;;;;;;4.89;99.02;102917.63;4853941;29;20520;-64
2022/01/26 13:31:14;;;;;;;60.90;25.60;;;;;;;4.95;98.39;102898.44;4853648;29;20041;-64
2022/01/26 13:55:30;;;;;;;58.38;24.90;;;;;;;4.98;98.48;102897.59;4852901;29;20060;-65
2022/01/26 13:58:26;;;;;;;58.90;23.63;;;;;;;5.00;99.04;102902.00;4852867;29;20044;-65
2022/01/26 14:01:00;;;;;;;59.08;25.60;;;;;;;5.02;98.26;102897.63;4854069;29;20041;-65
2022/01/26 14:03:29;;;;;;;57.15;26.05;;;;;;;5.05;98.76;102898.56;4835984;29;21469;-65
2022/01/26 14:05:55;;;;;;;56.22;24.88;;;;;;;5.02;98.16;102894.16;4839030;29;20124;-65
2022/01/26 14:08:21;;;;;;;65.75;26.20;;;;;;;5.01;98.42;102893.25;4852631;29;20047;-65
2022/01/26 14:10:48;;;;;;;57.65;25.05;;;;;;;4.97;98.85;102885.31;4852791;29;20029;-65
2022/01/26 14:13:19;;;;;;;56.22;24.52;;;;;;;4.98;98.57;102880.09;4853261;29;21503;-65